createdAt,value
2019-02-10T00:02:03.072Z,4.60
2019-02-10T00:07:04.712Z,4.73
2019-02-10T00:12:06.222Z,4.33
2019-02-10T00:17:08.180Z,4.97
2019-02-10T00:22:09.746Z,4.57
2019-02-10T00:27:11.327Z,4.33
2019-02-10T00:32:12.878Z,4.00
2019-02-10T00:37:16.160Z,4.93
2019-02-10T00:42:17.719Z,3.97
2019-02-10T00:47:19.656Z,4.53
2019-02-10T00:52:21.179Z,5.10
2019-02-10T00:57:22.744Z,4.00
2019-02-10T01:02:24.337Z,5.47
2019-02-10T01:07:26.200Z,4.50
2019-02-10T01:12:27.726Z,4.37
2019-02-10T01:17:29.259Z,4.70
2019-02-10T01:22:30.823Z,4.87
2019-02-10T01:27:32.376Z,4.90
2019-02-10T01:32:33.914Z,4.70
2019-02-10T01:37:35.470Z,4.33
2019-02-10T01:42:37.025Z,4.03
2019-02-10T01:47:39.028Z,5.07
2019-02-10T01:52:40.677Z,4.93
2019-02-10T01:57:42.714Z,5.07
2019-02-10T02:02:44.249Z,4.47
2019-02-10T02:07:45.872Z,5.00
2019-02-10T02:12:47.710Z,4.57
2019-02-10T02:17:49.269Z,4.17
2019-02-10T02:22:50.849Z,4.00
2019-02-10T02:27:52.390Z,4.67
2019-02-10T02:32:54.264Z,4.17
2019-02-10T02:37:55.846Z,4.63
2019-02-10T02:42:57.387Z,3.60
2019-02-10T02:47:58.936Z,4.03
2019-02-10T02:53:00.523Z,3.57
2019-02-10T02:58:02.173Z,3.90
2019-02-10T03:03:04.010Z,3.77
2019-02-10T03:08:05.637Z,3.70
2019-02-10T03:13:08.018Z,3.20
2019-02-10T03:18:09.627Z,3.53
2019-02-10T03:23:11.153Z,3.63
2019-02-10T03:28:13.147Z,3.70
2019-02-10T03:33:14.947Z,3.37
2019-02-10T03:38:16.499Z,4.00
2019-02-10T03:43:18.024Z,4.00
2019-02-10T03:48:19.867Z,3.50
2019-02-10T03:53:21.382Z,3.90
2019-02-10T03:58:23.287Z,3.70
2019-02-10T04:03:24.870Z,3.70
2019-02-10T04:08:26.399Z,3.97
2019-02-10T04:13:28.115Z,4.00
2019-02-10T04:18:30.017Z,4.13
2019-02-10T04:23:31.584Z,5.23
2019-02-10T04:28:33.100Z,6.10
2019-02-10T04:33:34.666Z,4.77
2019-02-10T04:38:36.237Z,4.03
2019-02-10T04:43:37.755Z,3.43
2019-02-10T04:48:39.300Z,3.97
2019-02-10T04:53:40.921Z,4.20
2019-02-10T04:58:42.501Z,3.70
2019-02-10T05:03:44.092Z,3.60
2019-02-10T05:08:45.617Z,3.17
2019-02-10T05:13:47.171Z,3.93
2019-02-10T05:18:48.775Z,4.13
2019-02-10T05:23:50.302Z,4.07
2019-02-10T05:28:51.847Z,4.37
2019-02-10T05:33:53.397Z,4.07
2019-02-10T05:38:55.315Z,4.40
2019-02-10T05:43:56.867Z,3.77
2019-02-10T05:48:58.518Z,3.80
2019-02-10T05:54:00.071Z,3.33
2019-02-10T05:59:01.578Z,3.53
2019-02-10T06:04:03.258Z,4.17
2019-02-10T06:09:05.168Z,3.93
2019-02-10T06:14:07.036Z,3.67
2019-02-10T06:19:09.333Z,3.93
2019-02-10T06:24:10.880Z,3.70
2019-02-10T06:29:12.400Z,3.10
2019-02-10T06:34:14.019Z,3.30
2019-02-10T06:39:15.524Z,3.50
2019-02-10T06:44:17.042Z,3.33
2019-02-10T06:49:18.658Z,3.13
2019-02-10T06:54:20.246Z,3.80
2019-02-10T06:59:22.135Z,3.90
2019-02-10T07:04:24.026Z,3.90
2019-02-10T07:09:25.599Z,3.60
2019-02-10T07:14:30.294Z,3.23
2019-02-10T07:20:07.967Z,3.33
2019-02-10T07:25:51.156Z,6.85
2019-02-10T07:30:52.967Z,3.60
2019-02-10T07:36:30.611Z,3.97
2019-02-10T07:42:26.327Z,3.70
2019-02-10T07:48:21.430Z,4.03
2019-02-10T07:53:57.338Z,4.03
2019-02-10T07:59:27.611Z,5.13
2019-02-10T08:05:03.691Z,4.03
2019-02-10T08:10:43.912Z,3.90
2019-02-10T08:16:21.436Z,5.07
2019-02-10T08:22:04.534Z,2.87
2019-02-10T08:27:40.244Z,2.50
2019-02-10T08:32:57.645Z,2.40
2019-02-10T08:38:39.688Z,3.37
2019-02-10T08:44:00.924Z,4.90
2019-02-10T08:49:50.410Z,6.00
2019-02-10T08:54:52.375Z,4.73
2019-02-10T08:59:53.972Z,3.00
2019-02-10T09:04:55.698Z,2.43
2019-02-10T09:09:57.261Z,2.90
2019-02-10T09:14:59.207Z,3.33
2019-02-10T09:20:00.880Z,2.90
2019-02-10T09:25:02.577Z,2.53
2019-02-10T09:30:04.996Z,1.70
2019-02-10T09:35:07.187Z,1.50
2019-02-10T09:40:09.327Z,1.70
2019-02-10T09:45:11.180Z,1.47
2019-02-10T09:50:15.187Z,2.53
2019-02-10T09:55:16.763Z,2.20
2019-02-10T10:00:18.435Z,2.57
2019-02-10T10:05:20.002Z,3.53
2019-02-10T10:10:21.606Z,4.50
2019-02-10T10:15:23.191Z,5.10
2019-02-10T10:20:24.808Z,5.10
2019-02-10T10:25:26.759Z,4.53
2019-02-10T10:30:28.407Z,3.03
2019-02-10T10:35:30.037Z,4.57
2019-02-10T10:40:32.608Z,3.87
2019-02-10T10:45:34.180Z,4.07
2019-02-10T10:50:35.733Z,3.87
2019-02-10T10:55:37.288Z,2.57
2019-02-10T11:00:39.977Z,2.73
2019-02-10T11:05:41.497Z,2.77
2019-02-10T11:10:43.425Z,2.27
2019-02-10T11:15:44.960Z,3.27
2019-02-10T11:20:46.528Z,3.10
2019-02-10T11:25:48.072Z,2.93
2019-02-10T11:30:51.465Z,2.83
2019-02-10T11:35:53.275Z,3.00
2019-02-10T11:40:55.269Z,2.47
2019-02-10T11:45:57.988Z,1.73
2019-02-10T11:51:00.432Z,1.80
2019-02-10T11:56:02.044Z,1.43
2019-02-10T12:01:03.659Z,1.20
2019-02-10T12:06:05.176Z,1.10
2019-02-10T12:11:06.766Z,1.10
2019-02-10T12:16:08.391Z,1.30
2019-02-10T12:21:10.472Z,1.73
2019-02-10T12:26:12.011Z,1.70
2019-02-10T12:31:13.605Z,1.60
2019-02-10T12:36:15.148Z,1.73
2019-02-10T12:41:16.857Z,1.80
2019-02-10T12:46:18.483Z,2.07
2019-02-10T12:51:20.407Z,2.00
2019-02-10T12:56:21.943Z,2.10
2019-02-10T13:01:23.825Z,1.60
2019-02-10T13:06:25.672Z,1.60
2019-02-10T13:11:28.053Z,1.80
2019-02-10T13:16:29.721Z,2.20
2019-02-10T13:21:31.425Z,2.30
2019-02-10T13:26:32.995Z,1.83
2019-02-10T13:31:34.617Z,1.80
2019-02-10T13:36:36.476Z,1.77
2019-02-10T13:41:37.032Z,1.53
2019-02-10T13:46:39.186Z,1.40
2019-02-10T13:51:41.373Z,2.00
2019-02-10T13:56:42.974Z,1.70
2019-02-10T14:01:44.551Z,1.90
2019-02-10T14:06:47.531Z,1.80
2019-02-10T14:11:49.555Z,1.67
2019-02-10T14:16:51.145Z,1.20
2019-02-10T14:21:53.145Z,1.50
2019-02-10T14:26:54.717Z,1.57
2019-02-10T14:31:56.433Z,1.23
2019-02-10T14:36:58.180Z,0.90
2019-02-10T14:42:00.226Z,0.90
2019-02-10T14:47:02.328Z,1.47
2019-02-10T14:52:04.090Z,0.73
2019-02-10T14:57:05.665Z,0.70
2019-02-10T15:02:07.303Z,1.43
2019-02-10T15:07:08.937Z,2.50
2019-02-10T15:12:10.479Z,0.80
2019-02-10T15:17:12.009Z,0.90
2019-02-10T15:22:14.259Z,1.37
2019-02-10T15:27:16.173Z,1.10
2019-02-10T15:32:17.762Z,1.03
2019-02-10T15:37:19.367Z,1.20
2019-02-10T15:42:20.986Z,1.10
2019-02-10T15:47:22.579Z,1.30
2019-02-10T15:52:24.183Z,1.60
2019-02-10T15:57:25.777Z,1.50
2019-02-10T16:02:28.355Z,1.40
2019-02-10T16:07:29.827Z,1.50
2019-02-10T16:12:31.777Z,1.77
2019-02-10T16:17:33.314Z,1.67
2019-02-10T16:22:34.873Z,1.00
2019-02-10T16:27:36.559Z,1.80
2019-02-10T16:32:38.261Z,1.70
2019-02-10T16:37:39.914Z,1.80
2019-02-10T16:42:41.794Z,1.90
2019-02-10T16:47:43.333Z,1.67
2019-02-10T16:52:44.947Z,1.50
2019-02-10T16:57:47.093Z,1.32
2019-02-10T17:02:48.660Z,1.10
2019-02-10T17:07:50.622Z,1.10
2019-02-10T17:12:52.197Z,1.70
2019-02-10T17:17:54.139Z,1.17
2019-02-10T17:22:56.140Z,1.20
2019-02-10T17:27:58.233Z,1.40
2019-02-10T17:32:59.800Z,1.13
2019-02-10T17:38:10.507Z,2.10
2019-02-10T17:43:12.052Z,1.87
2019-02-10T17:48:13.657Z,1.57
2019-02-10T17:53:15.334Z,1.40
2019-02-10T17:58:16.907Z,1.13
2019-02-10T18:03:18.592Z,1.53
2019-02-10T18:08:20.111Z,1.13
2019-02-10T18:13:21.672Z,1.30
2019-02-10T18:18:23.730Z,1.30
2019-02-10T18:23:25.342Z,1.10
2019-02-10T18:28:27.197Z,1.20
2019-02-10T18:33:28.842Z,1.20
2019-02-10T18:38:30.491Z,1.30
2019-02-10T18:43:32.175Z,1.10
2019-02-10T18:48:33.760Z,1.17
2019-02-10T18:53:35.434Z,1.60
2019-02-10T18:58:37.006Z,1.50
2019-02-10T19:03:38.774Z,1.30
2019-02-10T19:08:40.411Z,1.40
2019-02-10T19:13:42.038Z,1.43
2019-02-10T19:18:43.739Z,1.60
2019-02-10T19:23:45.295Z,2.00
2019-02-10T19:28:46.835Z,1.43
2019-02-10T19:33:48.498Z,1.70
2019-02-10T19:38:50.063Z,1.60
2019-02-10T19:43:51.909Z,1.30
2019-02-10T19:48:53.622Z,1.67
2019-02-10T19:53:55.955Z,1.77
2019-02-10T19:58:57.595Z,2.17
2019-02-10T20:03:59.372Z,1.80
2019-02-10T20:09:01.013Z,2.10
2019-02-10T20:14:02.649Z,1.63
2019-02-10T20:19:04.455Z,1.90
2019-02-10T20:24:06.057Z,1.70
2019-02-10T20:29:07.684Z,1.40
2019-02-10T20:34:09.205Z,1.80
2019-02-10T20:39:10.854Z,1.70
2019-02-10T20:44:12.574Z,1.37
2019-02-10T20:49:14.171Z,1.40
2019-02-10T20:54:15.737Z,1.10
2019-02-10T20:59:17.449Z,1.50
2019-02-10T21:04:19.376Z,0.97
2019-02-10T21:09:20.933Z,1.37
2019-02-10T21:14:22.475Z,1.00
2019-02-10T21:19:24.160Z,2.27
2019-02-10T21:24:25.974Z,1.23
2019-02-10T21:29:27.689Z,1.13
2019-02-10T21:34:29.552Z,1.50
2019-02-10T21:39:31.248Z,1.60
2019-02-10T21:44:33.150Z,1.33
2019-02-10T21:49:34.793Z,1.83
2019-02-10T21:54:36.433Z,3.33
2019-02-10T21:59:38.122Z,1.77
2019-02-10T22:04:40.769Z,1.77
2019-02-10T22:09:42.913Z,1.40
2019-02-10T22:14:44.571Z,2.10
2019-02-10T22:19:46.500Z,1.70
2019-02-10T22:24:48.310Z,1.73
2019-02-10T22:29:50.354Z,1.50
2019-02-10T22:34:51.986Z,2.10
2019-02-10T22:39:53.828Z,2.20
2019-02-10T22:44:55.357Z,2.10
2019-02-10T22:49:57.150Z,1.90
2019-02-10T22:54:58.732Z,2.20
2019-02-10T23:00:00.345Z,1.80
2019-02-10T23:05:02.297Z,2.00
2019-02-10T23:10:03.891Z,1.80
2019-02-10T23:15:05.462Z,2.03
2019-02-10T23:20:07.451Z,2.27
2019-02-10T23:25:09.032Z,2.30
2019-02-10T23:30:10.604Z,2.50
2019-02-10T23:35:12.551Z,3.20
2019-02-10T23:40:14.071Z,3.27
2019-02-10T23:45:15.677Z,3.10
2019-02-10T23:50:17.242Z,3.37
2019-02-10T23:55:18.834Z,3.77
